createdAt,value
2023-05-21T00:00:29.455Z,18.40
2023-05-21T00:03:32.542Z,18.40
2023-05-21T00:06:39.047Z,18.40
2023-05-21T00:09:41.504Z,18.40
2023-05-21T00:12:43.938Z,18.40
2023-05-21T00:15:46.826Z,18.40
2023-05-21T00:18:54.736Z,18.40
2023-05-21T00:21:57.813Z,18.40
2023-05-21T00:25:00.344Z,18.40
2023-05-21T00:28:03.222Z,18.40
2023-05-21T00:31:06.475Z,18.40
2023-05-21T00:34:08.894Z,18.40
2023-05-21T00:37:11.287Z,18.40
2023-05-21T00:40:13.870Z,18.40
2023-05-21T00:43:16.396Z,18.40
2023-05-21T00:46:21.621Z,18.40
2023-05-21T00:49:24.747Z,18.40
2023-05-21T00:52:27.745Z,18.40
2023-05-21T00:55:30.392Z,18.40
2023-05-21T00:58:35.899Z,18.40
2023-05-21T01:01:38.333Z,18.40
2023-05-21T01:04:41.315Z,18.40
2023-05-21T01:07:43.745Z,18.40
2023-05-21T01:10:46.205Z,18.40
2023-05-21T01:13:49.839Z,18.40
2023-05-21T01:16:53.215Z,18.40
2023-05-21T01:20:00.889Z,18.40
2023-05-21T01:23:03.852Z,18.40
2023-05-21T01:26:07.546Z,18.30
2023-05-21T01:29:13.691Z,18.40
2023-05-21T01:32:34.616Z,18.40
2023-05-21T01:35:47.744Z,18.40
2023-05-21T01:39:01.095Z,18.40
2023-05-21T01:42:06.738Z,18.40
2023-05-21T01:45:09.902Z,18.40
2023-05-21T01:48:13.145Z,18.30
2023-05-21T01:51:15.863Z,18.30
2023-05-21T01:54:18.175Z,18.30
2023-05-21T01:57:21.589Z,18.40
2023-05-21T02:00:25.798Z,18.30
2023-05-21T02:03:31.434Z,18.30
2023-05-21T02:06:36.096Z,18.30
2023-05-21T02:09:38.486Z,18.30
2023-05-21T02:12:40.877Z,18.30
2023-05-21T02:15:45.131Z,18.30
2023-05-21T02:18:51.688Z,18.30
2023-05-21T02:21:54.121Z,18.30
2023-05-21T02:24:56.421Z,18.30
2023-05-21T02:27:58.858Z,18.30
2023-05-21T02:31:01.401Z,18.30
2023-05-21T02:34:03.732Z,18.30
2023-05-21T02:37:06.851Z,18.30
2023-05-21T02:40:10.366Z,18.30
2023-05-21T02:43:14.762Z,18.30
2023-05-21T02:46:18.819Z,18.30
2023-05-21T02:49:21.849Z,18.30
2023-05-21T02:52:24.441Z,18.30
2023-05-21T02:55:27.339Z,18.30
2023-05-21T02:58:29.606Z,18.30
2023-05-21T03:01:32.010Z,18.30
2023-05-21T03:04:39.379Z,18.30
2023-05-21T03:07:42.664Z,18.30
2023-05-21T03:10:46.194Z,18.30
2023-05-21T03:13:48.973Z,18.30
2023-05-21T03:16:51.768Z,18.30
2023-05-21T03:19:54.903Z,18.30
2023-05-21T03:22:57.293Z,18.30
2023-05-21T03:25:59.734Z,18.30
2023-05-21T03:29:02.734Z,18.30
2023-05-21T03:32:05.698Z,18.30
2023-05-21T03:35:08.885Z,18.30
2023-05-21T03:38:11.538Z,18.30
2023-05-21T03:41:13.849Z,18.30
2023-05-21T03:44:18.910Z,18.30
2023-05-21T03:47:44.347Z,18.20
2023-05-21T03:50:46.967Z,18.30
2023-05-21T03:53:49.459Z,18.30
2023-05-21T03:56:51.820Z,18.30
2023-05-21T03:59:54.557Z,18.30
2023-05-21T04:02:57.046Z,18.30
2023-05-21T04:05:59.490Z,18.30
2023-05-21T04:09:02.552Z,18.30
2023-05-21T04:12:05.611Z,18.30
2023-05-21T04:15:08.501Z,18.30
2023-05-21T04:18:11.258Z,18.30
2023-05-21T04:21:13.951Z,18.20
2023-05-21T04:24:17.005Z,18.30
2023-05-21T04:27:25.748Z,18.30
2023-05-21T04:30:28.881Z,18.20
2023-05-21T04:33:31.254Z,18.30
2023-05-21T04:36:33.978Z,18.30
2023-05-21T04:39:36.730Z,18.30
2023-05-21T04:42:39.418Z,18.20
2023-05-21T04:45:42.002Z,18.30
2023-05-21T04:48:45.328Z,18.30
2023-05-21T04:51:49.580Z,18.30
2023-05-21T04:54:54.266Z,18.30
2023-05-21T04:57:56.577Z,18.30
2023-05-21T05:00:58.959Z,18.30
2023-05-21T05:04:01.638Z,18.30
2023-05-21T05:07:04.229Z,18.30
2023-05-21T05:10:07.170Z,18.20
2023-05-21T05:13:10.092Z,18.30
2023-05-21T05:16:14.849Z,18.20
2023-05-21T05:19:17.333Z,18.30
2023-05-21T05:22:20.161Z,18.30
2023-05-21T05:25:22.642Z,18.30
2023-05-21T05:28:24.967Z,18.30
2023-05-21T05:31:27.799Z,18.30
2023-05-21T05:34:39.113Z,18.30
2023-05-21T05:37:41.736Z,18.30
2023-05-21T05:40:54.371Z,18.30
2023-05-21T05:43:57.139Z,18.30
2023-05-21T05:47:01.935Z,18.30
2023-05-21T05:50:04.443Z,18.30
2023-05-21T05:53:07.631Z,18.20
2023-05-21T05:56:09.996Z,18.30
2023-05-21T05:59:36.545Z,18.20
2023-05-21T06:02:41.224Z,18.30
2023-05-21T06:05:44.930Z,18.30
2023-05-21T06:08:47.351Z,18.20
2023-05-21T06:11:50.170Z,18.30
2023-05-21T06:14:52.516Z,18.20
2023-05-21T06:17:55.420Z,18.30
2023-05-21T06:20:58.315Z,18.30
2023-05-21T06:24:00.799Z,18.20
2023-05-21T06:27:04.800Z,18.20
2023-05-21T06:30:08.951Z,18.20
2023-05-21T06:33:11.860Z,18.20
2023-05-21T06:36:14.253Z,18.20
2023-05-21T06:39:16.574Z,18.20
2023-05-21T06:42:18.963Z,18.20
2023-05-21T06:46:01.777Z,18.30
2023-05-21T06:52:44.147Z,18.30
2023-05-21T06:55:46.684Z,18.30
2023-05-21T06:58:56.692Z,18.20
2023-05-21T07:01:59.479Z,18.20
2023-05-21T07:05:01.914Z,18.20
2023-05-21T07:08:04.278Z,18.20
2023-05-21T07:11:06.687Z,18.20
2023-05-21T07:17:43.988Z,18.30
2023-05-21T07:20:46.941Z,18.30
2023-05-21T07:23:51.424Z,18.30
2023-05-21T07:26:54.029Z,18.30
2023-05-21T07:29:57.189Z,18.30
2023-05-21T07:32:59.693Z,18.30
2023-05-21T07:36:02.149Z,18.20
2023-05-21T07:39:05.220Z,18.20
2023-05-21T07:42:07.696Z,18.30
2023-05-21T07:45:11.039Z,18.20
2023-05-21T07:48:17.187Z,18.30
2023-05-21T07:51:31.149Z,18.30
2023-05-21T07:54:33.729Z,18.30
2023-05-21T07:57:37.019Z,18.30
2023-05-21T08:00:45.539Z,18.30
2023-05-21T08:03:48.422Z,18.30
2023-05-21T08:06:51.945Z,18.30
2023-05-21T08:09:54.714Z,18.30
2023-05-21T08:12:58.036Z,18.30
2023-05-21T08:16:00.477Z,18.30
2023-05-21T08:19:03.624Z,18.30
2023-05-21T08:22:08.827Z,18.30
2023-05-21T08:25:13.683Z,18.30
2023-05-21T08:28:16.579Z,18.30
2023-05-21T08:31:19.500Z,18.30
2023-05-21T08:34:22.169Z,18.30
2023-05-21T08:37:35.226Z,18.30
2023-05-21T08:40:53.764Z,18.30
2023-05-21T08:43:59.781Z,18.30
2023-05-21T08:47:05.348Z,18.30
2023-05-21T08:50:16.986Z,18.30
2023-05-21T08:53:27.191Z,18.30
2023-05-21T08:56:32.846Z,18.30
2023-05-21T08:59:37.365Z,18.40
2023-05-21T09:02:44.615Z,18.30
2023-05-21T09:05:47.225Z,18.40
2023-05-21T09:09:00.127Z,18.30
2023-05-21T09:12:16.801Z,18.30
2023-05-21T09:15:19.609Z,18.40
2023-05-21T09:18:22.159Z,18.40
2023-05-21T09:21:33.531Z,18.40
2023-05-21T09:24:42.151Z,18.40
2023-05-21T09:27:44.729Z,18.40
2023-05-21T09:30:49.028Z,18.40
2023-05-21T09:33:51.795Z,18.40
2023-05-21T09:36:57.922Z,18.40
2023-05-21T09:40:01.960Z,18.40
2023-05-21T09:43:05.715Z,18.40
2023-05-21T09:46:08.127Z,18.40
2023-05-21T09:49:25.009Z,18.40
2023-05-21T09:52:28.544Z,18.40
2023-05-21T09:55:31.624Z,18.40
2023-05-21T09:58:35.103Z,18.40
2023-05-21T10:01:38.988Z,18.40
2023-05-21T10:04:42.504Z,18.50
2023-05-21T10:07:53.037Z,18.50
2023-05-21T10:10:55.333Z,18.50
2023-05-21T10:14:11.856Z,18.50
2023-05-21T10:17:15.013Z,18.50
2023-05-21T10:20:17.767Z,18.50
2023-05-21T10:23:21.094Z,18.50
2023-05-21T10:26:24.964Z,18.50
2023-05-21T10:29:28.017Z,18.50
2023-05-21T10:32:31.754Z,18.50
2023-05-21T10:35:34.973Z,18.50
2023-05-21T10:38:39.437Z,18.50
2023-05-21T10:41:53.978Z,18.50
2023-05-21T10:45:34.222Z,18.50
2023-05-21T10:48:51.574Z,18.50
2023-05-21T10:52:12.326Z,18.60
2023-05-21T10:55:23.715Z,18.50
2023-05-21T10:58:29.975Z,18.60
2023-05-21T11:01:36.638Z,18.50
2023-05-21T11:04:42.246Z,18.60
2023-05-21T11:07:52.001Z,18.50
2023-05-21T11:10:59.181Z,18.60
2023-05-21T11:14:01.494Z,18.60
2023-05-21T11:17:16.260Z,18.60
2023-05-21T11:20:23.032Z,18.60
2023-05-21T11:23:51.564Z,18.60
2023-05-21T11:26:58.810Z,18.60
2023-05-21T11:30:04.778Z,18.70
2023-05-21T11:33:11.379Z,18.60
2023-05-21T11:36:14.093Z,18.60
2023-05-21T11:39:22.224Z,18.70
2023-05-21T11:42:38.981Z,18.70
2023-05-21T11:45:46.943Z,18.70
2023-05-21T11:48:51.211Z,18.70
2023-05-21T11:51:53.782Z,18.70
2023-05-21T11:54:57.551Z,18.70
2023-05-21T11:58:00.145Z,18.70
2023-05-21T12:01:02.469Z,18.70
2023-05-21T12:04:05.561Z,18.70
2023-05-21T12:07:08.048Z,18.70
2023-05-21T12:10:10.900Z,18.70
2023-05-21T12:13:14.821Z,18.70
2023-05-21T12:16:17.305Z,18.70
2023-05-21T12:19:19.756Z,18.70
2023-05-21T12:22:23.716Z,18.70
2023-05-21T12:25:26.267Z,18.70
2023-05-21T12:28:28.859Z,18.70
2023-05-21T12:31:33.019Z,18.80
2023-05-21T12:34:39.276Z,18.80
2023-05-21T12:37:41.721Z,18.80
2023-05-21T12:40:45.945Z,18.80
2023-05-21T12:43:48.596Z,18.80
2023-05-21T12:46:51.525Z,18.80
2023-05-21T12:50:01.787Z,18.80
2023-05-21T12:53:04.388Z,18.80
2023-05-21T12:56:14.110Z,18.80
2023-05-21T12:59:16.451Z,18.80
2023-05-21T13:02:25.333Z,18.80
2023-05-21T13:05:28.007Z,18.80
2023-05-21T13:08:30.382Z,18.80
2023-05-21T13:11:32.674Z,18.80
2023-05-21T13:14:35.046Z,18.80
2023-05-21T13:17:37.416Z,18.80
2023-05-21T13:20:39.889Z,18.90
2023-05-21T13:23:42.294Z,18.90
2023-05-21T13:26:44.573Z,18.90
2023-05-21T13:29:46.854Z,18.90
2023-05-21T13:32:49.276Z,18.90
2023-05-21T13:35:52.120Z,18.90
2023-05-21T13:38:56.589Z,18.90
2023-05-21T13:41:59.727Z,18.90
2023-05-21T13:45:02.267Z,18.90
2023-05-21T13:48:04.904Z,18.90
2023-05-21T13:51:07.277Z,18.90
2023-05-21T13:54:09.976Z,18.90
2023-05-21T13:57:12.293Z,18.90
2023-05-21T14:00:16.207Z,18.90
2023-05-21T14:03:18.781Z,18.90
2023-05-21T14:06:21.339Z,18.90
2023-05-21T14:09:27.324Z,18.90
2023-05-21T14:12:29.598Z,19.00
2023-05-21T14:15:32.872Z,19.00
2023-05-21T14:18:35.160Z,18.90
2023-05-21T14:21:37.474Z,19.00
2023-05-21T14:24:39.875Z,19.00
2023-05-21T14:27:42.239Z,18.90
2023-05-21T14:30:44.730Z,19.00
2023-05-21T14:33:47.287Z,19.00
2023-05-21T14:36:49.621Z,19.00
2023-05-21T14:39:51.993Z,19.00
2023-05-21T14:42:54.582Z,19.00
2023-05-21T14:45:57.240Z,19.00
2023-05-21T14:49:00.390Z,19.00
2023-05-21T14:52:02.717Z,19.00
2023-05-21T14:55:05.906Z,19.00
2023-05-21T14:58:08.318Z,19.00
2023-05-21T15:01:10.658Z,19.00
2023-05-21T15:04:13.091Z,19.00
2023-05-21T15:07:15.595Z,19.00
2023-05-21T15:10:18.818Z,19.00
2023-05-21T15:13:21.654Z,19.10
2023-05-21T15:16:24.202Z,19.00
2023-05-21T15:19:26.663Z,19.10
2023-05-21T15:22:29.081Z,19.00
2023-05-21T15:25:31.433Z,19.10
2023-05-21T15:28:33.805Z,19.10
2023-05-21T15:31:36.266Z,19.10
2023-05-21T15:34:38.609Z,19.10
2023-05-21T15:37:41.117Z,19.10
2023-05-21T15:40:43.625Z,19.10
2023-05-21T15:43:46.648Z,19.10
2023-05-21T15:46:50.216Z,19.10
2023-05-21T15:49:52.490Z,19.10
2023-05-21T15:52:54.812Z,19.10
2023-05-21T15:55:57.462Z,19.10
2023-05-21T15:59:01.538Z,19.10
2023-05-21T16:02:03.933Z,19.10
2023-05-21T16:05:06.421Z,19.10
2023-05-21T16:08:10.919Z,19.10
2023-05-21T16:11:13.327Z,19.10
2023-05-21T16:14:15.649Z,19.10
2023-05-21T16:17:19.963Z,19.10
2023-05-21T16:20:22.391Z,19.10
2023-05-21T16:23:25.025Z,19.10
2023-05-21T16:26:27.395Z,19.10
2023-05-21T16:29:29.734Z,19.10
2023-05-21T16:32:32.106Z,19.10
2023-05-21T16:35:34.776Z,19.10
2023-05-21T16:38:37.289Z,19.10
2023-05-21T16:41:39.513Z,19.10
2023-05-21T16:44:41.691Z,19.10
2023-05-21T16:47:44.036Z,19.20
2023-05-21T16:50:47.340Z,19.10
2023-05-21T16:53:49.651Z,19.20
2023-05-21T16:56:51.934Z,19.10
2023-05-21T16:59:54.398Z,19.20
2023-05-21T17:02:56.901Z,19.20
2023-05-21T17:05:59.307Z,19.20
2023-05-21T17:09:02.485Z,19.20
2023-05-21T17:12:06.290Z,19.20
2023-05-21T17:15:09.300Z,19.20
2023-05-21T17:18:12.397Z,19.20
2023-05-21T17:21:14.977Z,19.20
2023-05-21T17:24:17.329Z,19.20
2023-05-21T17:27:19.731Z,19.20
2023-05-21T17:30:21.958Z,19.20
2023-05-21T17:33:25.355Z,19.20
2023-05-21T17:36:27.883Z,19.20
2023-05-21T17:39:30.284Z,19.20
2023-05-21T17:42:32.586Z,19.20
2023-05-21T17:45:34.929Z,19.20
2023-05-21T17:48:37.480Z,19.20
2023-05-21T17:51:39.808Z,19.20
2023-05-21T17:54:42.131Z,19.20
2023-05-21T17:57:44.479Z,19.20
2023-05-21T18:00:46.941Z,19.20
2023-05-21T18:03:49.306Z,19.20
2023-05-21T18:06:52.008Z,19.20
2023-05-21T18:09:54.277Z,19.20
2023-05-21T18:12:56.682Z,19.30
2023-05-21T18:15:59.374Z,19.20
2023-05-21T18:19:07.816Z,19.20
2023-05-21T18:22:11.524Z,19.30
2023-05-21T18:25:13.801Z,19.20
2023-05-21T18:28:16.112Z,19.30
2023-05-21T18:31:19.438Z,19.30
2023-05-21T18:34:21.929Z,19.30
2023-05-21T18:37:24.268Z,19.30
2023-05-21T18:40:30.480Z,19.20
2023-05-21T18:43:33.096Z,19.30
2023-05-21T18:46:35.569Z,19.30
2023-05-21T18:49:37.929Z,19.30
2023-05-21T18:52:40.301Z,19.30
2023-05-21T18:55:42.663Z,19.20
2023-05-21T18:58:45.142Z,19.30
2023-05-21T19:01:47.743Z,19.30
2023-05-21T19:04:50.296Z,19.30
2023-05-21T19:07:53.007Z,19.20
2023-05-21T19:10:55.413Z,19.20
2023-05-21T19:13:57.704Z,19.20
2023-05-21T19:17:00.033Z,19.20
2023-05-21T19:20:05.558Z,19.20
2023-05-21T19:23:08.272Z,19.20
2023-05-21T19:26:10.569Z,19.20
2023-05-21T19:29:12.978Z,19.20
2023-05-21T19:32:16.704Z,19.20
2023-05-21T19:35:18.980Z,19.20
2023-05-21T19:38:21.248Z,19.20
2023-05-21T19:41:24.117Z,19.20
2023-05-21T19:44:26.543Z,19.20
2023-05-21T19:47:28.907Z,19.20
2023-05-21T19:50:31.303Z,19.20
2023-05-21T19:53:33.865Z,19.30
2023-05-21T19:56:36.552Z,19.20
2023-05-21T19:59:38.870Z,19.20
2023-05-21T20:02:41.613Z,19.20
2023-05-21T20:05:44.116Z,19.20
2023-05-21T20:08:46.886Z,19.20
2023-05-21T20:11:49.229Z,19.20
2023-05-21T20:14:53.771Z,19.20
2023-05-21T20:17:56.321Z,19.20
2023-05-21T20:20:58.792Z,19.20
2023-05-21T20:24:01.309Z,19.30
2023-05-21T20:27:03.872Z,19.20
2023-05-21T20:30:09.515Z,19.20
2023-05-21T20:33:11.888Z,19.20
2023-05-21T20:36:15.548Z,19.20
2023-05-21T20:39:19.284Z,19.20
2023-05-21T20:42:22.769Z,19.20
2023-05-21T20:45:25.179Z,19.20
2023-05-21T20:48:32.099Z,19.20
2023-05-21T20:51:34.463Z,19.20
2023-05-21T20:54:36.947Z,19.20
2023-05-21T20:57:39.346Z,19.20
2023-05-21T21:00:42.236Z,19.20
2023-05-21T21:03:48.439Z,19.20
2023-05-21T21:06:51.966Z,19.20
2023-05-21T21:09:54.255Z,19.20
2023-05-21T21:12:56.500Z,19.20
2023-05-21T21:15:58.724Z,19.20
2023-05-21T21:19:01.301Z,19.20
2023-05-21T21:22:03.885Z,19.20
2023-05-21T21:25:06.723Z,19.20
2023-05-21T21:28:09.039Z,19.20
2023-05-21T21:31:11.446Z,19.20
2023-05-21T21:34:14.547Z,19.20
2023-05-21T21:37:17.154Z,19.20
2023-05-21T21:40:19.486Z,19.20
2023-05-21T21:43:21.826Z,19.20
2023-05-21T21:46:25.270Z,19.20
2023-05-21T21:49:27.747Z,19.20
2023-05-21T21:52:30.112Z,19.20
2023-05-21T21:55:32.519Z,19.20
2023-05-21T21:58:34.853Z,19.20
2023-05-21T22:01:37.261Z,19.20
2023-05-21T22:04:39.951Z,19.20
2023-05-21T22:07:46.832Z,19.20
2023-05-21T22:10:49.273Z,19.20
2023-05-21T22:13:51.500Z,19.20
2023-05-21T22:16:55.528Z,19.20
2023-05-21T22:19:58.221Z,19.20
2023-05-21T22:23:00.590Z,19.20
2023-05-21T22:26:02.909Z,19.20
2023-05-21T22:29:05.189Z,19.20
2023-05-21T22:32:07.507Z,19.20
2023-05-21T22:35:10.137Z,19.20
2023-05-21T22:38:12.569Z,19.20
2023-05-21T22:41:15.143Z,19.20
2023-05-21T22:44:17.485Z,19.20
2023-05-21T22:47:24.021Z,19.20
2023-05-21T22:50:29.301Z,19.20
2023-05-21T22:53:32.553Z,19.20
2023-05-21T22:56:34.877Z,19.20
2023-05-21T22:59:37.228Z,19.20
2023-05-21T23:02:39.698Z,19.20
2023-05-21T23:05:42.201Z,19.20
2023-05-21T23:08:44.555Z,19.20
2023-05-21T23:11:46.902Z,19.20
2023-05-21T23:14:49.222Z,19.20
2023-05-21T23:17:51.579Z,19.20
2023-05-21T23:20:53.894Z,19.20
2023-05-21T23:23:56.164Z,19.20
2023-05-21T23:27:02.978Z,19.20
2023-05-21T23:30:05.996Z,19.20
2023-05-21T23:33:08.508Z,19.20
2023-05-21T23:36:10.914Z,19.10
2023-05-21T23:39:13.266Z,19.20
2023-05-21T23:42:19.241Z,19.20
2023-05-21T23:45:21.741Z,19.10
2023-05-21T23:48:25.144Z,19.10
2023-05-21T23:51:27.642Z,19.20
2023-05-21T23:54:29.992Z,19.10
2023-05-21T23:57:32.318Z,19.10
